(706) 295-7835

For Pilots

METAR

KRMG 240653Z AUTO 00000KT 10SM OVC003 10/10 A2994 RMK AO2 SLP132 T01000100

Location & Communications

Get detailed information about the airport, provided by AirNav.

Pilot Services

We have fuel services, on-site repair and maintenance, 24-hour security and more.

Fuel Points

Russell Regional Airport is a Shell Aviation merchant and is proud to participate in the Shell Aero Class Rewards program!

Today's Fuel Prices

Jet A $4.24 / gallon
AvGas (100LL) $5.10 / gallon
Self Serve AvGas $4.70 / gallon
Learn about fuel points program